createdAt,value
2022-09-10T00:01:59.662Z,21.85
2022-09-10T00:04:27.916Z,21.25
2022-09-10T00:06:55.769Z,21.42
2022-09-10T00:09:23.110Z,21.00
2022-09-10T00:11:50.174Z,20.92
2022-09-10T00:14:23.250Z,21.25
2022-09-10T00:16:50.456Z,19.45
2022-09-10T00:19:17.922Z,19.10
2022-09-10T00:21:45.290Z,19.58
2022-09-10T00:24:12.846Z,18.77
2022-09-10T00:26:40.039Z,17.08
2022-09-10T00:29:10.495Z,17.65
2022-09-10T00:31:38.121Z,17.40
2022-09-10T00:34:05.941Z,17.45
2022-09-10T00:36:36.823Z,17.08
2022-09-10T00:39:07.179Z,17.25
2022-09-10T00:41:35.607Z,18.23
2022-09-10T00:44:26.910Z,18.30
2022-09-10T00:46:55.725Z,18.95
2022-09-10T00:49:50.824Z,19.67
2022-09-10T00:54:47.016Z,20.55
2022-09-10T00:57:20.438Z,20.27
2022-09-10T00:59:51.665Z,21.43
2022-09-10T01:02:19.207Z,23.38
2022-09-10T01:04:46.764Z,25.27
2022-09-10T01:07:15.714Z,25.17
2022-09-10T01:09:43.274Z,24.70
2022-09-10T01:12:35.812Z,25.23
2022-09-10T01:15:56.927Z,25.80
2022-09-10T01:19:02.642Z,24.83
2022-09-10T01:21:37.216Z,25.40
2022-09-10T01:24:18.670Z,23.85
2022-09-10T01:27:14.758Z,24.80
2022-09-10T01:29:53.553Z,24.20
2022-09-10T01:32:43.931Z,23.75
2022-09-10T01:35:32.312Z,25.33
2022-09-10T01:38:04.890Z,27.67
2022-09-10T01:40:33.340Z,24.58
2022-09-10T01:43:06.525Z,27.23
2022-09-10T01:46:14.197Z,26.50
2022-09-10T01:49:02.618Z,27.75
2022-09-10T01:52:18.258Z,27.67
2022-09-10T01:55:06.476Z,24.92
2022-09-10T01:57:42.164Z,28.60
2022-09-10T02:00:17.967Z,29.15
2022-09-10T02:02:53.781Z,30.27
2022-09-10T02:05:23.863Z,28.52
2022-09-10T02:07:56.260Z,29.35
2022-09-10T02:10:23.787Z,30.33
2022-09-10T02:12:50.653Z,29.25
2022-09-10T02:15:19.216Z,28.45
2022-09-10T02:17:47.263Z,29.40
2022-09-10T02:20:14.847Z,32.88
2022-09-10T02:22:51.493Z,29.85
2022-09-10T02:25:18.637Z,29.95
2022-09-10T02:27:45.846Z,28.90
2022-09-10T02:30:13.309Z,28.40
2022-09-10T02:32:40.157Z,31.13
2022-09-10T02:35:07.690Z,32.72
2022-09-10T02:37:34.679Z,31.70
2022-09-10T02:40:01.923Z,29.92
2022-09-10T02:42:28.748Z,32.53
2022-09-10T02:44:56.676Z,30.88
2022-09-10T02:47:23.466Z,29.20
2022-09-10T02:49:50.289Z,32.63
2022-09-10T02:52:17.367Z,30.83
2022-09-10T02:54:44.673Z,29.60
2022-09-10T02:57:12.346Z,31.42
2022-09-10T02:59:39.168Z,35.10
2022-09-10T03:02:06.132Z,31.20
2022-09-10T03:04:33.052Z,32.22
2022-09-10T03:06:59.894Z,31.83
2022-09-10T03:09:28.977Z,31.65
2022-09-10T03:11:56.137Z,32.13
2022-09-10T03:14:24.713Z,30.83
2022-09-10T03:16:51.597Z,28.92
2022-09-10T03:19:18.592Z,31.00
2022-09-10T03:21:47.595Z,31.88
2022-09-10T03:24:15.573Z,29.40
2022-09-10T03:26:44.494Z,28.77
2022-09-10T03:29:12.311Z,27.98
2022-09-10T03:31:39.688Z,28.55
2022-09-10T03:34:06.662Z,28.23
2022-09-10T03:36:33.502Z,25.67
2022-09-10T03:39:00.916Z,29.33
2022-09-10T03:41:28.593Z,29.30
2022-09-10T03:43:57.535Z,28.55
2022-09-10T03:46:24.866Z,26.88
2022-09-10T03:48:55.222Z,26.58
2022-09-10T03:51:23.332Z,26.52
2022-09-10T03:53:50.256Z,26.05
2022-09-10T03:56:20.124Z,25.63
2022-09-10T03:58:49.301Z,27.92
2022-09-10T04:01:19.865Z,29.50
2022-09-10T04:03:47.371Z,24.98
2022-09-10T04:06:16.390Z,27.90
2022-09-10T04:08:46.316Z,29.10
2022-09-10T04:11:13.863Z,26.33
2022-09-10T04:13:40.758Z,27.92
2022-09-10T04:16:07.813Z,26.98
2022-09-10T04:18:35.267Z,29.88
2022-09-10T04:21:02.156Z,28.13
2022-09-10T04:23:29.558Z,29.23
2022-09-10T04:25:57.173Z,35.25
2022-09-10T04:28:24.308Z,28.92
2022-09-10T04:30:51.521Z,26.50
2022-09-10T04:33:18.922Z,27.58
2022-09-10T04:35:45.971Z,28.75
2022-09-10T04:38:12.868Z,29.50
2022-09-10T04:40:40.014Z,30.67
2022-09-10T04:43:06.874Z,28.92
2022-09-10T04:45:34.815Z,27.83
2022-09-10T04:48:06.704Z,34.20
2022-09-10T04:50:34.037Z,27.65
2022-09-10T04:53:01.299Z,31.00
2022-09-10T04:55:30.539Z,29.52
2022-09-10T04:57:57.332Z,28.95
2022-09-10T05:00:25.173Z,30.58
2022-09-10T05:02:52.736Z,30.98
2022-09-10T05:05:19.820Z,30.85
2022-09-10T05:07:46.669Z,31.45
2022-09-10T05:10:13.560Z,28.40
2022-09-10T05:12:40.443Z,28.58
2022-09-10T05:15:08.088Z,30.10
2022-09-10T05:17:35.004Z,30.10
2022-09-10T05:20:04.118Z,26.48
2022-09-10T05:22:37.244Z,28.27
2022-09-10T05:25:07.534Z,28.77
2022-09-10T05:27:34.603Z,27.20
2022-09-10T05:30:02.303Z,35.38
2022-09-10T05:32:29.631Z,28.52
2022-09-10T05:34:56.472Z,27.48
2022-09-10T05:37:23.368Z,29.98
2022-09-10T05:39:50.517Z,29.20
2022-09-10T05:42:17.507Z,28.13
2022-09-10T05:44:44.416Z,26.42
2022-09-10T05:47:11.276Z,27.02
2022-09-10T05:49:38.199Z,25.67
2022-09-10T05:52:05.191Z,25.48
2022-09-10T05:54:32.042Z,25.83
2022-09-10T05:56:58.926Z,24.13
2022-09-10T05:59:25.823Z,23.08
2022-09-10T06:01:52.916Z,23.65
2022-09-10T06:04:19.923Z,25.63
2022-09-10T06:06:47.987Z,21.90
2022-09-10T06:09:15.112Z,22.00
2022-09-10T06:11:42.088Z,20.35
2022-09-10T06:14:09.178Z,21.40
2022-09-10T06:16:36.108Z,22.08
2022-09-10T06:19:03.099Z,21.30
2022-09-10T06:21:29.950Z,21.50
2022-09-10T06:23:56.932Z,22.95
2022-09-10T06:26:26.070Z,20.83
2022-09-10T06:28:53.461Z,21.42
2022-09-10T06:31:20.321Z,18.58
2022-09-10T06:37:28.426Z,19.05
2022-09-10T06:39:55.361Z,18.08
2022-09-10T06:42:23.946Z,17.38
2022-09-10T06:44:50.774Z,17.58
2022-09-10T06:47:55.819Z,17.33
2022-09-10T06:50:05.073Z,19.05
2022-09-10T06:52:31.897Z,17.60
2022-09-10T06:54:59.343Z,18.05
2022-09-10T06:57:26.793Z,16.65
2022-09-10T06:59:53.646Z,16.60
2022-09-10T07:02:20.564Z,16.20
2022-09-10T07:04:47.422Z,16.92
2022-09-10T07:07:15.092Z,16.85
2022-09-10T07:09:42.036Z,15.77
2022-09-10T07:12:09.541Z,15.95
2022-09-10T07:14:36.437Z,15.93
2022-09-10T07:17:03.279Z,16.08
2022-09-10T07:19:30.883Z,15.93
2022-09-10T07:21:57.749Z,15.88
2022-09-10T07:24:24.626Z,16.02
2022-09-10T07:26:51.574Z,17.08
2022-09-10T07:29:18.534Z,16.75
2022-09-10T07:31:47.338Z,16.30
2022-09-10T07:34:14.292Z,16.25
2022-09-10T07:36:41.147Z,16.17
2022-09-10T07:39:09.174Z,16.85
2022-09-10T07:41:36.242Z,16.73
2022-09-10T07:44:03.698Z,15.98
2022-09-10T07:46:30.531Z,15.43
2022-09-10T07:49:00.237Z,15.18
2022-09-10T07:51:29.384Z,14.82
2022-09-10T07:53:58.129Z,14.73
2022-09-10T07:56:25.380Z,15.27
2022-09-10T07:58:53.905Z,14.38
2022-09-10T08:01:20.998Z,15.25
2022-09-10T08:03:47.999Z,14.63
2022-09-10T08:06:15.980Z,14.80
2022-09-10T08:08:43.245Z,15.07
2022-09-10T08:11:16.696Z,15.82
2022-09-10T08:13:48.801Z,15.93
2022-09-10T08:16:23.134Z,18.23
2022-09-10T08:21:19.413Z,15.45
2022-09-10T08:23:54.284Z,15.05
2022-09-10T08:26:25.590Z,16.20
2022-09-10T08:28:55.959Z,15.73
2022-09-10T08:31:24.804Z,16.40
2022-09-10T08:33:54.045Z,16.27
2022-09-10T08:36:24.269Z,16.25
2022-09-10T08:38:51.860Z,16.85
2022-09-10T08:41:39.732Z,15.75
2022-09-10T08:44:10.415Z,14.80
2022-09-10T08:46:49.967Z,16.45
2022-09-10T08:49:28.666Z,16.17
2022-09-10T08:52:17.073Z,15.75
2022-09-10T08:55:06.445Z,15.40
2022-09-10T08:57:39.683Z,15.57
2022-09-10T09:00:11.148Z,17.02
2022-09-10T09:03:06.289Z,15.40
2022-09-10T09:05:47.220Z,15.02
2022-09-10T09:08:21.914Z,15.50
2022-09-10T09:10:54.316Z,15.38
2022-09-10T09:13:26.946Z,14.77
2022-09-10T09:16:24.766Z,15.60
2022-09-10T09:19:24.076Z,14.70
2022-09-10T09:21:53.834Z,14.52
2022-09-10T09:24:26.464Z,16.02
2022-09-10T09:27:01.867Z,15.02
2022-09-10T09:30:11.687Z,14.70
2022-09-10T09:32:42.467Z,14.77
2022-09-10T09:35:32.355Z,13.90
2022-09-10T09:38:08.171Z,16.02
2022-09-10T09:40:57.961Z,16.05
2022-09-10T09:43:52.462Z,14.18
2022-09-10T09:46:21.713Z,14.77
2022-09-10T09:48:53.629Z,15.75
2022-09-10T09:51:21.554Z,14.02
2022-09-10T09:54:01.005Z,14.73
2022-09-10T09:56:45.842Z,14.43
2022-09-10T09:59:29.028Z,14.57
2022-09-10T10:02:00.290Z,14.35
2022-09-10T10:04:31.251Z,14.82
2022-09-10T10:07:00.255Z,15.05
2022-09-10T10:09:29.887Z,14.82
2022-09-10T10:12:14.540Z,15.10
2022-09-10T10:17:29.715Z,14.55
2022-09-10T10:20:14.069Z,14.48
2022-09-10T10:22:46.529Z,14.75
2022-09-10T10:25:38.469Z,16.02
2022-09-10T10:28:26.284Z,15.32
2022-09-10T10:31:00.990Z,14.05
2022-09-10T10:33:31.623Z,15.20
2022-09-10T10:36:35.967Z,14.50
2022-09-10T10:39:28.714Z,17.17
2022-09-10T10:42:13.325Z,15.70
2022-09-10T10:47:38.936Z,13.73
2022-09-10T10:50:18.636Z,13.75
2022-09-10T10:53:23.061Z,15.68
2022-09-10T10:56:06.513Z,15.82
2022-09-10T10:59:01.167Z,13.85
2022-09-10T11:01:37.228Z,14.18
2022-09-10T11:04:09.984Z,15.50
2022-09-10T11:06:44.537Z,15.50
2022-09-10T11:09:39.122Z,15.52
2022-09-10T11:12:20.463Z,15.55
2022-09-10T11:15:03.161Z,16.15
2022-09-10T11:17:38.632Z,16.60
2022-09-10T11:20:28.646Z,15.88
2022-09-10T11:23:18.475Z,15.05
2022-09-10T11:26:07.866Z,15.50
2022-09-10T11:29:13.398Z,15.25
2022-09-10T11:31:45.200Z,16.27
2022-09-10T11:34:35.548Z,15.68
2022-09-10T11:37:19.292Z,15.38
2022-09-10T11:39:50.705Z,15.70
2022-09-10T11:42:27.977Z,15.48
2022-09-10T11:45:28.438Z,14.82
2022-09-10T11:48:07.764Z,13.73
2022-09-10T11:50:45.742Z,15.70
2022-09-10T11:53:16.711Z,16.73
2022-09-10T11:56:20.903Z,17.08
2022-09-10T11:59:05.457Z,16.27
2022-09-10T12:04:45.654Z,16.02
2022-09-10T12:07:49.298Z,17.75
2022-09-10T12:10:53.496Z,17.27
2022-09-10T12:13:20.614Z,16.38
2022-09-10T12:15:56.173Z,17.50
2022-09-10T12:18:30.091Z,16.33
2022-09-10T12:21:05.811Z,14.40
2022-09-10T12:23:36.970Z,15.88
2022-09-10T12:26:20.711Z,16.33
2022-09-10T12:28:53.341Z,17.63
2022-09-10T12:31:21.958Z,17.33
2022-09-10T12:33:48.944Z,17.45
2022-09-10T12:36:35.710Z,16.42
2022-09-10T12:39:20.558Z,16.40
2022-09-10T12:41:47.371Z,16.00
2022-09-10T12:44:36.328Z,17.00
2022-09-10T12:47:15.929Z,15.80
2022-09-10T12:49:49.391Z,16.30
2022-09-10T12:52:42.325Z,17.50
2022-09-10T12:55:42.923Z,16.90
2022-09-10T12:58:46.949Z,17.48
2022-09-10T13:01:16.713Z,18.38
2022-09-10T13:03:58.572Z,18.30
2022-09-10T13:06:40.760Z,16.75
2022-09-10T13:09:26.922Z,16.13
2022-09-10T13:11:56.973Z,17.55
2022-09-10T13:14:36.209Z,16.95
2022-09-10T13:17:04.432Z,15.80
2022-09-10T13:19:31.226Z,16.38
2022-09-10T13:21:58.297Z,15.93
2022-09-10T13:24:34.634Z,16.50
2022-09-10T13:27:20.377Z,16.35
2022-09-10T13:30:20.509Z,15.90
2022-09-10T13:32:55.780Z,16.58
2022-09-10T13:35:51.904Z,15.77
2022-09-10T13:38:18.723Z,14.38
2022-09-10T13:41:16.442Z,14.82
2022-09-10T13:44:00.966Z,15.48
2022-09-10T13:46:43.868Z,14.73
2022-09-10T13:49:20.294Z,14.73
2022-09-10T13:51:53.335Z,14.70
2022-09-10T13:54:47.613Z,15.52
2022-09-10T13:57:35.507Z,14.30
2022-09-10T14:00:17.438Z,14.68
2022-09-10T14:02:55.290Z,13.85
2022-09-10T14:05:23.872Z,14.70
2022-09-10T14:07:52.450Z,12.80
2022-09-10T14:14:11.216Z,12.98
2022-09-10T14:16:51.189Z,12.25
2022-09-10T14:19:26.195Z,13.13
2022-09-10T14:21:54.672Z,13.07
2022-09-10T14:24:30.324Z,13.10
2022-09-10T14:27:24.541Z,15.13
2022-09-10T14:29:52.626Z,13.82
2022-09-10T14:32:28.477Z,13.15
2022-09-10T14:34:56.212Z,12.50
2022-09-10T14:37:28.819Z,13.30
2022-09-10T14:39:56.745Z,14.57
2022-09-10T14:42:34.179Z,14.90
2022-09-10T14:45:03.172Z,15.27
2022-09-10T14:47:35.071Z,14.63
2022-09-10T14:50:31.527Z,13.70
2022-09-10T14:52:58.836Z,13.65
2022-09-10T14:55:28.377Z,14.13
2022-09-10T14:57:56.600Z,15.95
2022-09-10T15:00:24.650Z,15.18
2022-09-10T15:06:40.363Z,15.18
2022-09-10T15:09:08.252Z,14.60
2022-09-10T15:11:37.749Z,15.13
2022-09-10T15:14:08.033Z,14.93
2022-09-10T15:16:35.224Z,16.73
2022-09-10T15:19:02.170Z,16.15
2022-09-10T15:21:29.162Z,16.83
2022-09-10T15:23:56.415Z,16.13
2022-09-10T15:26:23.326Z,16.25
2022-09-10T15:28:50.302Z,16.75
2022-09-10T15:31:18.395Z,16.48
2022-09-10T15:33:45.292Z,16.98
2022-09-10T15:36:12.163Z,15.70
2022-09-10T15:38:59.858Z,14.75
2022-09-10T15:41:27.028Z,16.77
2022-09-10T15:43:53.917Z,16.67
2022-09-10T15:46:24.398Z,15.68
2022-09-10T15:48:52.827Z,16.27
2022-09-10T15:51:24.075Z,17.10
2022-09-10T15:53:52.673Z,18.13
2022-09-10T15:56:21.279Z,17.67
2022-09-10T15:58:52.928Z,15.52
2022-09-10T16:01:19.907Z,17.48
2022-09-10T16:03:58.012Z,18.60
2022-09-10T16:06:31.648Z,17.70
2022-09-10T16:09:01.992Z,18.30
2022-09-10T16:11:33.629Z,18.48
2022-09-10T16:14:07.111Z,18.02
2022-09-10T16:16:35.729Z,18.23
2022-09-10T16:19:03.213Z,19.85
2022-09-10T16:21:32.729Z,20.13
2022-09-10T16:24:01.207Z,19.42
2022-09-10T16:26:31.157Z,18.55
2022-09-10T16:29:00.062Z,19.52
2022-09-10T16:31:30.309Z,18.67
2022-09-10T16:34:00.282Z,20.58
2022-09-10T16:36:27.398Z,20.23
2022-09-10T16:38:56.175Z,18.50
2022-09-10T16:41:24.720Z,19.38
2022-09-10T16:43:52.506Z,21.60
2022-09-10T16:46:20.215Z,19.80
2022-09-10T16:48:47.242Z,20.40
2022-09-10T16:51:16.475Z,22.00
2022-09-10T16:53:47.479Z,20.02
2022-09-10T16:56:16.394Z,20.25
2022-09-10T16:58:47.654Z,20.90
2022-09-10T17:01:15.866Z,22.83
2022-09-10T17:07:23.343Z,21.60
2022-09-10T17:09:53.392Z,23.13
2022-09-10T17:12:22.377Z,21.75
2022-09-10T17:14:49.832Z,23.52
2022-09-10T17:17:16.729Z,24.42
2022-09-10T17:19:43.573Z,22.88
2022-09-10T17:22:11.520Z,23.80
2022-09-10T17:24:38.632Z,23.10
2022-09-10T17:27:06.560Z,22.52
2022-09-10T17:29:33.408Z,22.70
2022-09-10T17:32:00.279Z,23.90
2022-09-10T17:34:28.257Z,22.60
2022-09-10T17:36:55.207Z,21.98
2022-09-10T17:39:22.212Z,22.50
2022-09-10T17:41:49.121Z,25.20
2022-09-10T17:44:16.845Z,30.20
2022-09-10T17:46:45.099Z,26.05
2022-09-10T17:49:15.616Z,24.35
2022-09-10T17:51:42.823Z,24.10
2022-09-10T17:54:09.979Z,25.02
2022-09-10T17:56:38.183Z,23.95
2022-09-10T17:59:06.965Z,24.15
2022-09-10T18:01:39.121Z,24.45
2022-09-10T18:04:07.745Z,25.00
2022-09-10T18:06:38.247Z,24.70
2022-09-10T18:09:06.401Z,25.70
2022-09-10T18:11:38.826Z,24.50
2022-09-10T18:14:05.986Z,26.48
2022-09-10T18:16:34.365Z,24.08
2022-09-10T18:19:04.416Z,26.65
2022-09-10T18:21:36.588Z,28.23
2022-09-10T18:24:12.758Z,27.45
2022-09-10T18:26:42.875Z,27.55
2022-09-10T18:29:15.319Z,26.60
2022-09-10T18:31:45.790Z,28.08
2022-09-10T18:34:18.514Z,29.35
2022-09-10T18:36:51.218Z,28.50
2022-09-10T18:39:18.093Z,26.98
2022-09-10T18:41:45.550Z,27.10
2022-09-10T18:44:24.564Z,27.00
2022-09-10T18:46:53.062Z,28.42
2022-09-10T18:49:22.635Z,29.90
2022-09-10T18:51:50.071Z,28.55
2022-09-10T18:54:18.366Z,29.48
2022-09-10T18:56:47.431Z,29.08
2022-09-10T18:59:17.108Z,28.20
2022-09-10T19:01:45.800Z,29.48
2022-09-10T19:04:16.490Z,30.50
2022-09-10T19:06:46.934Z,28.23
2022-09-10T19:13:01.669Z,27.20
2022-09-10T19:15:28.637Z,30.25
2022-09-10T19:17:55.507Z,30.17
2022-09-10T19:20:23.299Z,28.80
2022-09-10T19:22:50.229Z,29.30
2022-09-10T19:25:17.129Z,29.38
2022-09-10T19:27:45.220Z,29.80
2022-09-10T19:30:12.543Z,31.23
2022-09-10T19:32:39.401Z,27.83
2022-09-10T19:38:57.370Z,27.63
2022-09-10T19:41:25.642Z,28.02
2022-09-10T19:43:54.150Z,29.15
2022-09-10T19:46:23.551Z,33.50
2022-09-10T19:48:51.998Z,31.00
2022-09-10T19:51:22.928Z,33.15
2022-09-10T19:53:50.047Z,32.05
2022-09-10T19:56:20.927Z,31.77
2022-09-10T19:58:50.713Z,32.05
2022-09-10T20:01:20.015Z,35.97
2022-09-10T20:03:48.457Z,34.47
2022-09-10T20:06:18.460Z,32.15
2022-09-10T20:08:47.287Z,34.22
2022-09-10T20:11:22.516Z,32.67
2022-09-10T20:13:53.163Z,35.72
2022-09-10T20:20:08.009Z,34.67
2022-09-10T20:22:38.650Z,35.83
2022-09-10T20:25:06.045Z,36.80
2022-09-10T20:27:33.317Z,34.88
2022-09-10T20:30:01.328Z,39.28
2022-09-10T20:32:28.685Z,37.45
2022-09-10T20:38:43.503Z,40.60
2022-09-10T20:41:12.194Z,44.13
2022-09-10T20:43:39.700Z,41.83
2022-09-10T20:46:14.969Z,43.15
2022-09-10T20:48:45.847Z,52.20
2022-09-10T20:51:15.530Z,47.97
2022-09-10T20:53:43.535Z,50.38
2022-09-10T20:56:14.390Z,48.15
2022-09-10T20:58:41.732Z,44.97
2022-09-10T21:01:20.261Z,41.97
2022-09-10T21:03:48.664Z,40.72
2022-09-10T21:06:19.444Z,40.97
2022-09-10T21:08:47.738Z,41.58
2022-09-10T21:11:17.827Z,46.38
2022-09-10T21:13:50.638Z,43.05
2022-09-10T21:16:20.231Z,42.15
2022-09-10T21:18:54.563Z,42.53
2022-09-10T21:21:25.720Z,42.42
2022-09-10T21:23:58.998Z,38.90
2022-09-10T21:26:27.639Z,38.67
2022-09-10T21:28:56.904Z,39.33
2022-09-10T21:31:25.052Z,40.38
2022-09-10T21:33:52.064Z,38.13
2022-09-10T21:36:20.460Z,39.65
2022-09-10T21:38:52.035Z,37.90
2022-09-10T21:41:28.253Z,36.97
2022-09-10T21:43:55.092Z,40.58
2022-09-10T21:46:21.989Z,42.70
2022-09-10T21:48:48.898Z,41.65
2022-09-10T21:51:17.791Z,45.78
2022-09-10T21:53:45.347Z,40.28
2022-09-10T21:56:16.932Z,34.55
2022-09-10T21:58:45.376Z,37.53
2022-09-10T22:01:24.544Z,37.03
2022-09-10T22:03:54.793Z,36.28
2022-09-10T22:06:25.262Z,37.80
2022-09-10T22:08:57.896Z,34.70
2022-09-10T22:11:30.579Z,34.38
2022-09-10T22:14:03.310Z,33.25
2022-09-10T22:20:18.288Z,34.63
2022-09-10T22:22:45.193Z,33.45
2022-09-10T22:25:12.113Z,36.75
2022-09-10T22:27:39.705Z,33.47
2022-09-10T22:30:06.954Z,33.67
2022-09-10T22:32:34.285Z,30.92
2022-09-10T22:35:01.286Z,33.33
2022-09-10T22:37:28.210Z,32.67
2022-09-10T22:39:55.076Z,33.70
2022-09-10T22:42:21.985Z,33.88
2022-09-10T22:44:49.200Z,35.42
2022-09-10T22:47:16.057Z,31.73
2022-09-10T22:49:47.481Z,31.00
2022-09-10T22:52:14.394Z,29.60
2022-09-10T22:54:41.224Z,31.70
2022-09-10T22:57:08.423Z,31.58
2022-09-10T22:59:37.631Z,29.35
2022-09-10T23:02:04.942Z,33.50
2022-09-10T23:04:31.871Z,32.53
2022-09-10T23:06:58.731Z,32.67
2022-09-10T23:09:25.655Z,34.30
2022-09-10T23:11:52.633Z,33.85
2022-09-10T23:14:20.884Z,34.28
2022-09-10T23:16:50.081Z,32.58
2022-09-10T23:19:20.408Z,30.17
2022-09-10T23:21:50.009Z,31.52
2022-09-10T23:24:22.380Z,28.80
2022-09-10T23:26:49.384Z,27.20
2022-09-10T23:29:20.627Z,24.60
2022-09-10T23:31:47.967Z,29.02
2022-09-10T23:34:19.560Z,29.48
2022-09-10T23:36:48.221Z,27.83
2022-09-10T23:39:16.314Z,28.40
2022-09-10T23:41:43.286Z,26.35
2022-09-10T23:44:10.544Z,27.50
2022-09-10T23:46:37.538Z,29.30
2022-09-10T23:49:05.066Z,26.60
2022-09-10T23:51:32.095Z,27.95
2022-09-10T23:53:59.576Z,29.08
2022-09-10T23:56:28.522Z,31.40
2022-09-10T23:58:56.725Z,29.23
